createdAt,value
2022-08-12T04:18:13.866Z,100747.69
2022-08-12T04:20:42.890Z,100741.84
2022-08-12T04:23:16.787Z,100735.84
2022-08-12T04:25:45.019Z,100740.78
2022-08-12T04:28:14.095Z,100748.47
2022-08-12T04:30:42.191Z,100743.06
2022-08-12T04:33:10.625Z,100742.28
2022-08-12T04:35:39.659Z,100741.19
2022-08-12T04:38:08.503Z,100741.78
2022-08-12T04:40:37.400Z,100742.75
2022-08-12T04:43:07.016Z,100748.78
2022-08-12T04:45:54.720Z,100746.81
2022-08-12T04:48:22.468Z,100732.81
2022-08-12T04:50:51.864Z,100734.56
2022-08-12T04:53:19.921Z,100727.38
2022-08-12T04:55:48.141Z,100743.84
2022-08-12T04:58:15.789Z,100745.50
2022-08-12T05:00:57.677Z,100738.25
2022-08-12T05:03:26.500Z,100742.03
2022-08-12T05:05:56.655Z,100745.09
2022-08-12T05:08:25.553Z,100743.88
2022-08-12T05:10:54.001Z,100746.81
2022-08-12T05:13:24.326Z,100747.19
2022-08-12T05:16:05.643Z,100753.41
2022-08-12T05:18:39.505Z,100756.31
2022-08-12T05:21:10.396Z,100755.00
2022-08-12T05:23:39.331Z,100755.63
2022-08-12T05:26:07.710Z,100756.06
2022-08-12T05:28:35.916Z,100760.19
2022-08-12T05:31:03.890Z,100765.00
2022-08-12T05:33:38.393Z,100764.78
2022-08-12T05:36:09.245Z,100761.50
2022-08-12T05:38:54.956Z,100762.41
2022-08-12T05:41:24.323Z,100772.06
2022-08-12T05:43:53.214Z,100766.19
2022-08-12T05:46:21.435Z,100776.16
2022-08-12T05:48:51.194Z,100773.59
2022-08-12T05:51:20.219Z,100783.97
2022-08-12T05:53:48.301Z,100782.31
2022-08-12T05:56:24.362Z,100790.13
2022-08-12T05:58:52.657Z,100779.91
2022-08-12T06:02:11.589Z,100791.31
2022-08-12T06:04:09.680Z,100786.25
2022-08-12T06:06:42.208Z,100787.06
2022-08-12T06:09:11.356Z,100785.81
2022-08-12T06:11:41.359Z,100787.59
2022-08-12T06:14:27.672Z,100786.25
2022-08-12T06:16:56.195Z,100782.41
2022-08-12T06:19:25.146Z,100782.16
2022-08-12T06:22:15.451Z,100787.50
2022-08-12T06:24:43.109Z,100792.84
2022-08-12T06:27:11.535Z,100789.66
2022-08-12T06:30:07.544Z,100788.16
2022-08-12T06:32:28.493Z,100791.00
2022-08-12T06:35:27.128Z,100791.50
2022-08-12T06:38:01.407Z,100792.31
2022-08-12T06:40:45.971Z,100798.06
2022-08-12T06:43:19.802Z,100794.19
2022-08-12T06:45:49.432Z,100791.03
2022-08-12T06:48:17.475Z,100790.34
2022-08-12T06:50:46.042Z,100791.16
2022-08-12T06:53:15.057Z,100787.78
2022-08-12T06:55:57.807Z,100787.06
2022-08-12T06:58:27.256Z,100785.78
2022-08-12T07:00:55.965Z,100785.31
2022-08-12T07:03:27.579Z,100785.44
2022-08-12T07:05:56.532Z,100782.03
2022-08-12T07:08:27.710Z,100780.50
2022-08-12T07:10:59.178Z,100777.09
2022-08-12T07:13:28.486Z,100773.34
2022-08-12T07:15:56.815Z,100775.69
2022-08-12T07:18:30.388Z,100773.34
2022-08-12T07:20:58.248Z,100776.66
2022-08-12T07:23:27.787Z,100771.00
2022-08-12T07:25:58.481Z,100773.38
2022-08-12T07:28:29.456Z,100769.47
2022-08-12T07:30:58.739Z,100767.19
2022-08-12T07:33:29.024Z,100765.66
2022-08-12T07:35:59.843Z,100772.16
2022-08-12T07:38:31.409Z,100771.78
2022-08-12T07:41:05.677Z,100774.41
2022-08-12T07:43:36.472Z,100780.19
2022-08-12T07:46:08.132Z,100774.28
2022-08-12T07:48:38.495Z,100778.38
2022-08-12T07:51:06.731Z,100781.56
2022-08-12T07:53:47.761Z,100779.03
2022-08-12T07:56:28.213Z,100779.84
2022-08-12T07:58:59.282Z,100768.59
2022-08-12T08:01:28.154Z,100773.16
2022-08-12T08:04:18.691Z,100773.28
2022-08-12T08:06:47.976Z,100765.47
2022-08-12T08:09:18.912Z,100759.81
2022-08-12T08:12:03.951Z,100764.00
2022-08-12T08:14:31.739Z,100769.94
2022-08-12T08:17:03.320Z,100761.88
2022-08-12T08:19:33.648Z,100763.84
2022-08-12T08:29:52.536Z,100761.59
2022-08-12T08:32:20.176Z,100766.84
2022-08-12T08:34:54.200Z,100759.44
2022-08-12T08:37:22.309Z,100762.03
2022-08-12T08:39:51.137Z,100757.81
2022-08-12T08:42:36.242Z,100749.31
2022-08-12T08:45:12.906Z,100743.34
2022-08-12T08:47:44.661Z,100740.88
2022-08-12T08:50:15.238Z,100745.53
2022-08-12T08:52:43.498Z,100746.63
2022-08-12T08:55:14.005Z,100752.91
2022-08-12T08:57:44.729Z,100748.94
2022-08-12T09:00:19.673Z,100742.78
2022-08-12T09:02:59.430Z,100744.03
2022-08-12T09:05:28.149Z,100730.22
2022-08-12T09:08:15.434Z,100728.06
2022-08-12T09:10:50.706Z,100728.88
2022-08-12T09:14:11.976Z,100725.41
2022-08-12T09:19:05.743Z,100720.53
2022-08-12T09:21:54.563Z,100731.25
2022-08-12T09:24:21.495Z,100725.25
2022-08-12T09:26:50.409Z,100725.88
2022-08-12T09:30:10.346Z,100723.97
2022-08-12T09:32:57.149Z,100717.19
2022-08-12T09:34:58.395Z,100715.84
2022-08-12T09:37:26.706Z,100714.78
2022-08-12T09:40:05.580Z,100718.94
2022-08-12T09:43:18.023Z,100719.19
2022-08-12T09:46:06.693Z,100709.09
2022-08-12T09:48:39.388Z,100707.19
2022-08-12T09:51:17.179Z,100705.56
2022-08-12T09:54:09.167Z,100705.00
2022-08-12T09:57:00.873Z,100701.47
2022-08-12T10:00:16.689Z,100705.53
2022-08-12T10:02:45.732Z,100693.25
2022-08-12T10:05:03.338Z,100693.25
2022-08-12T10:07:39.736Z,100694.34
2022-08-12T10:10:23.867Z,100690.53
2022-08-12T10:13:12.643Z,100679.31
2022-08-12T10:16:02.430Z,100676.28
2022-08-12T10:18:35.214Z,100668.09
2022-08-12T10:21:08.427Z,100664.81
2022-08-12T10:23:40.288Z,100661.25
2022-08-12T10:26:36.607Z,100659.34
2022-08-12T10:30:03.474Z,100655.50
2022-08-12T10:32:21.783Z,100648.66
2022-08-12T10:34:53.726Z,100654.41
2022-08-12T10:38:36.299Z,100645.38
2022-08-12T10:40:19.696Z,100651.66
2022-08-12T10:43:06.451Z,100650.53
2022-08-12T10:45:38.502Z,100641.22
2022-08-12T10:48:20.185Z,100636.81
2022-08-12T10:51:01.903Z,100634.34
2022-08-12T10:53:45.908Z,100631.91
2022-08-12T10:56:15.454Z,100630.53
2022-08-12T10:58:46.247Z,100634.91
2022-08-12T11:01:50.182Z,100635.19
2022-08-12T11:04:22.962Z,100628.31
2022-08-12T11:07:02.963Z,100624.19
2022-08-12T11:09:41.686Z,100610.81
2022-08-12T11:12:56.421Z,100617.63
2022-08-12T11:15:20.548Z,100620.91
2022-08-12T11:17:55.621Z,100622.00
2022-08-12T11:20:29.007Z,100619.19
2022-08-12T11:22:59.872Z,100612.06
2022-08-12T11:25:57.278Z,100613.09
2022-08-12T11:28:34.203Z,100619.13
2022-08-12T11:31:12.237Z,100622.38
2022-08-12T11:34:05.996Z,100614.69
2022-08-12T11:36:30.627Z,100613.59
2022-08-12T11:39:04.262Z,100603.97
2022-08-12T11:41:35.824Z,100596.53
2022-08-12T11:44:35.359Z,100592.41
2022-08-12T11:46:54.483Z,100594.88
2022-08-12T11:49:32.254Z,100595.44
2022-08-12T11:52:02.367Z,100594.09
2022-08-12T11:54:30.490Z,100585.59
2022-08-12T11:57:02.507Z,100585.66
2022-08-12T12:02:20.690Z,100587.50
2022-08-12T12:04:52.606Z,100589.13
2022-08-12T12:07:22.367Z,100580.44
2022-08-12T12:09:53.300Z,100580.72
2022-08-12T12:12:25.124Z,100581.06
2022-08-12T12:14:54.776Z,100573.16
2022-08-12T12:17:24.043Z,100569.31
